Time;durP1;ratioP1;P1;durP2;ratioP2;P2;SDS_P1;SDS_P2;PMS_P1;PMS_P2;Temp;Humidity;BMP_temperature;BMP_pressure;BME280_temperature;BME280_humidity;BME280_pressure;Samples;Min_cycle;Max_cycle;Signal;HPM_P1;HPM_P2
2023/09/20 00:01:59;;;;;;;11.20;10.10;;;;;;;13.06;100.00;98842.49;110235;1246;60568;-65
2023/09/20 00:04:26;;;;;;;10.80;9.70;;;;;;;13.07;100.00;98842.21;110242;1247;60243;-66
2023/09/20 00:06:53;;;;;;;12.70;11.20;;;;;;;13.08;100.00;98846.20;110208;1245;60109;-66
2023/09/20 00:09:19;;;;;;;13.50;12.40;;;;;;;13.11;100.00;98843.53;110236;1246;59842;-66
2023/09/20 00:11:46;;;;;;;15.20;13.70;;;;;;;13.13;100.00;98846.89;110252;1246;60349;-67
2023/09/20 00:14:13;;;;;;;16.80;14.90;;;;;;;13.15;100.00;98847.25;110273;1247;60131;-66
2023/09/20 00:16:40;;;;;;;15.30;14.00;;;;;;;13.16;100.00;98850.06;110243;1246;64522;-66
2023/09/20 00:19:07;;;;;;;15.90;14.40;;;;;;;13.18;100.00;98851.31;110233;1246;59745;-65
2023/09/20 00:21:34;;;;;;;14.20;12.90;;;;;;;13.22;100.00;98851.21;110257;1246;59907;-66
2023/09/20 00:24:04;;;;;;;15.10;13.70;;;;;;;13.24;100.00;98850.81;110203;1245;68076;-66
2023/09/20 00:26:33;;;;;;;15.80;14.40;;;;;;;13.27;100.00;98851.20;110259;1246;60309;-66
2023/09/20 00:29:05;;;;;;;16.30;14.80;;;;;;;13.29;100.00;98849.21;110194;1246;62846;-66
2023/09/20 00:31:32;;;;;;;16.20;14.50;;;;;;;13.31;100.00;98851.02;110196;1246;59749;-66
2023/09/20 00:33:59;;;;;;;16.40;14.60;;;;;;;13.33;100.00;98853.93;110266;1245;59901;-66
2023/09/20 00:36:25;;;;;;;16.10;13.80;;;;;;;13.33;100.00;98853.23;110217;1246;65635;-66
2023/09/20 00:38:52;;;;;;;16.80;15.20;;;;;;;13.33;100.00;98850.72;110253;1247;59846;-66
2023/09/20 00:41:19;;;;;;;16.40;14.90;;;;;;;13.31;100.00;98852.08;110209;1246;62842;-66
2023/09/20 00:43:46;;;;;;;15.80;14.20;;;;;;;13.29;100.00;98851.90;110212;1247;59746;-66
2023/09/20 00:46:13;;;;;;;14.80;13.50;;;;;;;13.28;100.00;98852.75;110252;1246;60024;-66
2023/09/20 00:48:40;;;;;;;15.20;13.70;;;;;;;13.26;100.00;98859.84;110259;1246;66533;-66
2023/09/20 00:51:09;;;;;;;17.00;14.10;;;;;;;13.23;100.00;98858.23;110261;1246;60037;-66
2023/09/20 00:53:35;;;;;;;14.40;13.00;;;;;;;13.21;100.00;98860.59;110219;1246;64495;-66
2023/09/20 00:56:04;;;;;;;15.70;13.80;;;;;;;13.18;100.00;98862.23;110264;1246;59862;-66
2023/09/20 00:58:34;;;;;;;16.60;12.90;;;;;;;13.16;100.00;98862.75;109752;1246;59947;-66
2023/09/20 01:01:02;;;;;;;;;;;;;;;13.14;100.00;98865.59;110247;1246;67775;-66
2023/09/20 01:03:29;;;;;;;16.10;14.60;;;;;;;13.11;100.00;98866.17;109867;1246;59817;-66
2023/09/20 01:05:56;;;;;;;19.80;18.00;;;;;;;13.08;100.00;98869.07;110246;1245;62797;-66
2023/09/20 01:08:23;;;;;;;17.80;15.60;;;;;;;13.06;100.00;98867.80;110218;1246;59795;-66
2023/09/20 01:10:50;;;;;;;15.90;14.30;;;;;;;13.04;100.00;98867.25;110232;1246;59811;-66
2023/09/20 01:13:18;;;;;;;13.50;12.10;;;;;;;13.04;100.00;98871.02;110236;1246;65705;-66
2023/09/20 01:15:45;;;;;;;15.10;13.20;;;;;;;13.04;100.00;98869.75;110243;1247;59744;-66
2023/09/20 01:18:12;;;;;;;11.60;10.00;;;;;;;13.05;100.00;98871.14;110200;1247;64290;-66
2023/09/20 01:20:40;;;;;;;15.80;13.90;;;;;;;13.05;100.00;98872.52;110231;1245;59766;-66
2023/09/20 01:23:07;;;;;;;16.10;14.40;;;;;;;13.06;100.00;98868.17;110244;1248;59790;-66
2023/09/20 01:25:35;;;;;;;15.20;12.90;;;;;;;13.09;100.00;98866.15;109741;1245;65622;-66
2023/09/20 01:28:04;;;;;;;14.60;13.30;;;;;;;13.09;100.00;98863.67;110274;1247;60301;-66
2023/09/20 01:30:34;;;;;;;12.60;11.60;;;;;;;13.06;100.00;98864.82;110215;1246;63724;-66
2023/09/20 01:33:04;;;;;;;15.40;14.00;;;;;;;13.04;100.00;98865.69;110218;1246;59747;-66
2023/09/20 01:35:31;;;;;;;15.00;13.60;;;;;;;13.02;100.00;98865.61;110234;1246;60222;-66
2023/09/20 01:37:58;;;;;;;15.70;14.20;;;;;;;13.00;100.00;98863.62;110249;1245;66791;-66
2023/09/20 01:40:26;;;;;;;13.40;12.00;;;;;;;12.99;100.00;98866.75;110201;1247;59892;-66
2023/09/20 01:42:53;;;;;;;14.70;13.30;;;;;;;12.96;100.00;98864.47;110230;1246;64141;-66
2023/09/20 01:45:21;;;;;;;12.80;11.60;;;;;;;12.93;100.00;98867.60;110256;1246;59756;-66
2023/09/20 01:47:49;;;;;;;13.00;11.60;;;;;;;12.89;100.00;98868.11;110210;1247;59845;-66
2023/09/20 01:50:20;;;;;;;15.20;13.20;;;;;;;12.84;100.00;98871.83;109953;1246;66504;-66
2023/09/20 01:52:55;;;;;;;13.30;12.10;;;;;;;12.80;100.00;98877.14;109862;1247;59896;-66
2023/09/20 01:55:24;;;;;;;14.50;13.10;;;;;;;12.76;100.00;98882.13;110196;1246;63826;-66
2023/09/20 01:57:55;;;;;;;15.70;13.60;;;;;;;12.73;100.00;98883.77;110236;1246;59756;-66
2023/09/20 02:00:36;;;;;;;15.70;14.40;;;;;;;12.69;100.00;98878.34;110240;1246;60192;-66
2023/09/20 02:03:09;;;;;;;16.90;15.20;;;;;;;12.68;100.00;98878.33;110250;1246;66860;-66
2023/09/20 02:05:36;;;;;;;17.00;15.40;;;;;;;12.67;100.00;98879.23;109739;1245;60348;-66
2023/09/20 02:08:04;;;;;;;18.70;17.30;;;;;;;12.66;100.00;98883.45;110221;1246;62507;-66
2023/09/20 02:10:31;;;;;;;20.90;18.80;;;;;;;12.64;100.00;98886.41;110218;1246;60079;-66
2023/09/20 02:12:59;;;;;;;27.60;24.70;;;;;;;12.62;100.00;98883.72;110263;1246;59843;-66
2023/09/20 02:15:27;;;;;;;23.90;21.30;;;;;;;12.60;100.00;98882.66;109661;1253;65652;-66
2023/09/20 02:17:54;;;;;;;23.80;21.30;;;;;;;12.58;100.00;98885.86;110320;1244;60975;-66
2023/09/20 02:20:23;;;;;;;20.40;18.00;;;;;;;12.55;100.00;98883.59;110290;1244;64101;-66
2023/09/20 02:22:55;;;;;;;16.10;14.80;;;;;;;12.50;100.00;98883.53;110283;1244;59767;-66
2023/09/20 02:25:22;;;;;;;19.30;17.50;;;;;;;12.46;100.00;98878.20;110314;1244;60700;-66
2023/09/20 02:27:51;;;;;;;18.60;16.90;;;;;;;12.43;100.00;98880.38;110335;1244;66992;-66
2023/09/20 02:30:19;;;;;;;19.00;16.70;;;;;;;12.41;100.00;98884.85;109795;1244;60154;-66
2023/09/20 02:32:52;;;;;;;18.40;16.70;;;;;;;12.39;100.00;98886.77;110313;1244;63767;-66
2023/09/20 02:35:20;;;;;;;16.50;15.00;;;;;;;12.37;100.00;98887.81;110271;1244;59789;-66
2023/09/20 02:37:48;;;;;;;16.80;15.10;;;;;;;12.35;100.00;98889.17;110288;1244;59829;-66
2023/09/20 02:40:18;;;;;;;15.00;13.70;;;;;;;12.33;100.00;98891.83;110295;1244;66845;-66
2023/09/20 02:42:54;;;;;;;14.30;13.00;;;;;;;12.28;100.00;98891.83;110294;1244;59801;-66
2023/09/20 02:45:25;;;;;;;11.80;10.70;;;;;;;12.23;100.00;98888.46;110289;1244;62535;-66
2023/09/20 02:47:52;;;;;;;15.00;13.50;;;;;;;12.19;100.00;98887.92;110278;1244;59909;-66
2023/09/20 02:50:24;;;;;;;16.20;13.40;;;;;;;12.13;100.00;98888.19;110300;1245;60026;-66
2023/09/20 02:52:52;;;;;;;24.80;20.40;;;;;;;12.06;100.00;98888.86;110286;1244;67011;-66
2023/09/20 02:55:21;;;;;;;16.70;14.40;;;;;;;12.02;100.00;98889.00;110310;1244;60667;-66
2023/09/20 02:57:52;;;;;;;13.80;12.40;;;;;;;12.00;100.00;98886.85;110294;1244;64540;-66
2023/09/20 03:00:21;;;;;;;14.90;13.20;;;;;;;11.96;100.00;98885.71;110279;1244;59795;-66
2023/09/20 03:02:52;;;;;;;14.80;13.20;;;;;;;11.93;100.00;98886.47;109781;1244;59753;-66
2023/09/20 03:05:23;;;;;;;16.10;14.50;;;;;;;11.90;100.00;98885.42;110297;1244;65669;-66
2023/09/20 03:07:53;;;;;;;17.80;13.70;;;;;;;11.88;100.00;98886.86;110365;1244;60095;-66
2023/09/20 03:10:23;;;;;;;14.70;13.20;;;;;;;11.84;100.00;98893.64;110268;1244;64094;-66
2023/09/20 03:12:51;;;;;;;10.60;9.30;;;;;;;11.80;100.00;98896.10;110287;1244;59837;-67
2023/09/20 03:15:23;;;;;;;11.00;9.30;;;;;;;11.72;100.00;98893.35;110259;1244;59873;-66
2023/09/20 03:17:52;;;;;;;10.20;9.30;;;;;;;11.63;100.00;98888.77;110338;1244;66915;-66
2023/09/20 03:20:22;;;;;;;10.20;9.20;;;;;;;11.58;100.00;98890.75;110324;1244;60134;-66
2023/09/20 03:22:51;;;;;;;8.70;8.00;;;;;;;11.53;100.00;98893.25;110316;1244;64020;-66
2023/09/20 03:25:19;;;;;;;9.80;8.60;;;;;;;11.50;100.00;98895.27;110282;1244;59766;-66
2023/09/20 03:27:46;;;;;;;10.00;9.00;;;;;;;11.47;100.00;98892.98;110285;1244;59841;-66
2023/09/20 03:30:13;;;;;;;11.20;10.20;;;;;;;11.44;100.00;98892.66;110277;1244;65631;-66
2023/09/20 03:32:42;;;;;;;13.40;12.20;;;;;;;11.41;100.00;98891.98;109823;1244;59876;-66
2023/09/20 03:35:10;;;;;;;12.50;11.20;;;;;;;11.39;100.00;98890.51;110338;1244;62896;-66
2023/09/20 03:37:37;;;;;;;12.70;11.50;;;;;;;11.37;100.00;98892.96;109784;1244;59863;-66
2023/09/20 03:40:06;;;;;;;10.80;9.70;;;;;;;11.35;100.00;98893.88;110241;1244;60860;-66
2023/09/20 03:42:33;;;;;;;11.00;9.80;;;;;;;11.31;100.00;98890.91;110299;1244;67124;-66
2023/09/20 03:45:00;;;;;;;10.50;9.50;;;;;;;11.28;100.00;98890.30;110317;1244;59723;-66
2023/09/20 03:47:27;;;;;;;12.60;11.30;;;;;;;11.24;100.00;98888.58;110307;1244;64037;-66
2023/09/20 03:49:54;;;;;;;8.10;7.40;;;;;;;11.21;100.00;98888.80;110288;1244;60002;-66
2023/09/20 03:52:21;;;;;;;11.50;10.40;;;;;;;11.19;100.00;98891.08;110354;1244;59839;-66
2023/09/20 03:54:53;;;;;;;9.10;8.10;;;;;;;11.16;100.00;98894.27;110312;1244;66872;-66
2023/09/20 03:57:24;;;;;;;9.20;8.30;;;;;;;11.14;100.00;98892.88;110318;1244;59823;-66
2023/09/20 03:59:54;;;;;;;10.20;9.20;;;;;;;11.09;100.00;98893.02;110323;1244;62521;-66
2023/09/20 04:02:23;;;;;;;7.40;6.70;;;;;;;11.05;100.00;98892.42;110304;1244;59811;-66
2023/09/20 04:04:50;;;;;;;7.60;6.20;;;;;;;11.00;100.00;98893.67;110302;1244;59851;-66
2023/09/20 04:07:18;;;;;;;8.20;7.40;;;;;;;10.95;100.00;98894.89;110324;1244;66535;-65
2023/09/20 04:09:45;;;;;;;11.20;10.20;;;;;;;10.91;100.00;98897.47;110298;1244;60164;-66
2023/09/20 04:12:12;;;;;;;10.60;9.70;;;;;;;10.88;100.00;98897.55;110303;1244;62865;-66
2023/09/20 04:14:39;;;;;;;11.30;10.00;;;;;;;10.84;100.00;98900.10;110342;1244;59853;-66
2023/09/20 04:17:05;;;;;;;9.80;8.90;;;;;;;10.82;100.00;98898.28;110293;1244;59828;-66
2023/09/20 04:19:32;;;;;;;9.90;9.00;;;;;;;10.80;100.00;98899.48;110313;1245;65420;-66
2023/09/20 04:22:01;;;;;;;9.00;7.80;;;;;;;10.78;100.00;98892.94;110265;1244;59871;-66
2023/09/20 04:24:27;;;;;;;11.00;8.60;;;;;;;10.76;100.00;98896.77;110294;1244;62813;-66
2023/09/20 04:26:54;;;;;;;8.80;8.00;;;;;;;10.74;100.00;98899.05;110298;1244;59765;-66
2023/09/20 04:29:20;;;;;;;9.10;8.30;;;;;;;10.73;100.00;98900.48;110093;1245;59699;-66
2023/09/20 04:31:49;;;;;;;10.10;7.90;;;;;;;10.75;100.00;98902.89;110283;1244;66822;-66
2023/09/20 04:34:16;;;;;;;9.90;8.90;;;;;;;10.74;100.00;98903.81;110320;1244;61364;-66
2023/09/20 04:36:45;;;;;;;13.10;10.40;;;;;;;10.75;100.00;98908.91;110314;1244;59880;-66
2023/09/20 04:39:12;;;;;;;13.50;9.10;;;;;;;10.77;100.00;98910.94;110289;1244;59850;-66
2023/09/20 04:41:38;;;;;;;10.20;8.80;;;;;;;10.78;100.00;98915.48;110307;1244;59751;-66
2023/09/20 04:44:05;;;;;;;9.90;8.90;;;;;;;10.81;100.00;98916.36;110296;1244;66928;-66
2023/09/20 04:46:35;;;;;;;10.40;9.40;;;;;;;10.83;100.00;98914.98;109831;1244;60228;-66
2023/09/20 04:49:05;;;;;;;11.60;10.30;;;;;;;10.93;100.00;98918.33;109804;1244;64423;-66
2023/09/20 04:51:32;;;;;;;14.50;11.00;;;;;;;11.28;100.00;98915.87;110292;1244;59808;-66
2023/09/20 04:53:59;;;;;;;17.40;10.30;;;;;;;11.70;100.00;98920.20;110331;1244;59790;-66
2023/09/20 04:56:29;;;;;;;10.40;9.50;;;;;;;12.04;100.00;98918.55;110016;1244;66739;-66
2023/09/20 04:58:57;;;;;;;9.30;8.40;;;;;;;12.41;100.00;98918.46;109778;1244;60113;-66
2023/09/20 05:01:24;;;;;;;9.60;8.30;;;;;;;12.75;100.00;98918.54;110298;1244;64086;-66
2023/09/20 05:03:50;;;;;;;8.90;8.00;;;;;;;13.04;100.00;98915.05;109745;1250;59824;-66
2023/09/20 05:06:18;;;;;;;6.80;5.90;;;;;;;13.36;100.00;98915.02;110320;1244;59735;-66
2023/09/20 05:08:45;;;;;;;7.00;6.30;;;;;;;13.66;100.00;98919.99;110330;1244;66993;-66
2023/09/20 05:11:13;;;;;;;6.20;5.50;;;;;;;13.93;100.00;98926.19;110315;1244;59722;-66
2023/09/20 05:13:41;;;;;;;10.00;6.90;;;;;;;14.16;100.00;98927.15;110265;1244;63986;-66
2023/09/20 05:16:08;;;;;;;7.60;5.90;;;;;;;14.37;100.00;98928.58;110245;1244;59747;-67
2023/09/20 05:18:34;;;;;;;7.70;5.60;;;;;;;14.65;100.00;98923.41;110250;1244;59765;-66
2023/09/20 05:21:01;;;;;;;6.00;5.20;;;;;;;14.92;100.00;98925.94;110283;1244;60181;-66
2023/09/20 05:23:28;;;;;;;5.30;4.80;;;;;;;15.12;100.00;98929.27;110314;1244;60301;-67
2023/09/20 05:25:54;;;;;;;7.50;5.00;;;;;;;15.32;100.00;98930.01;110282;1244;64050;-67
2023/09/20 05:28:21;;;;;;;7.90;5.70;;;;;;;15.55;100.00;98932.23;110276;1244;59830;-67
2023/09/20 05:30:47;;;;;;;7.90;5.60;;;;;;;15.73;100.00;98935.50;109784;1245;59843;-67
2023/09/20 05:33:14;;;;;;;6.50;5.80;;;;;;;15.95;100.00;98934.61;110297;1244;60040;-66
2023/09/20 05:35:40;;;;;;;6.30;5.30;;;;;;;16.15;100.00;98934.23;110309;1244;60630;-66
2023/09/20 05:38:07;;;;;;;6.90;6.00;;;;;;;16.31;100.00;98934.01;110234;1244;63749;-66
2023/09/20 05:40:34;;;;;;;7.40;5.80;;;;;;;16.48;100.00;98936.41;110249;1245;59738;-66
2023/09/20 05:43:03;;;;;;;6.30;5.70;;;;;;;16.71;100.00;98934.73;110317;1244;59870;-67
2023/09/20 05:45:31;;;;;;;8.30;7.50;;;;;;;16.89;100.00;98935.89;110270;1244;66590;-67
2023/09/20 05:48:03;;;;;;;10.80;6.10;;;;;;;16.83;100.00;98936.99;110284;1244;60592;-67
2023/09/20 05:50:33;;;;;;;6.60;5.10;;;;;;;16.76;100.00;98935.85;110308;1244;63717;-67
2023/09/20 05:53:01;;;;;;;5.70;5.10;;;;;;;16.75;100.00;98938.80;110300;1245;59747;-67
2023/09/20 05:55:32;;;;;;;6.50;4.90;;;;;;;16.74;100.00;98933.69;110297;1244;59804;-67
2023/09/20 05:58:00;;;;;;;8.20;5.60;;;;;;;16.73;100.00;98933.09;110285;1244;66852;-66
2023/09/20 06:00:26;;;;;;;9.50;7.30;;;;;;;16.73;100.00;98935.45;110305;1244;59760;-66
2023/09/20 06:02:53;;;;;;;8.60;6.70;;;;;;;16.73;100.00;98936.83;110300;1244;64016;-66
2023/09/20 06:05:20;;;;;;;6.70;6.00;;;;;;;16.72;100.00;98939.08;109741;1250;60157;-66
2023/09/20 06:07:47;;;;;;;7.80;6.40;;;;;;;16.70;100.00;98941.20;110285;1245;59710;-66
2023/09/20 06:10:16;;;;;;;10.20;5.90;;;;;;;16.75;100.00;98945.23;109769;1244;65615;-67
2023/09/20 06:12:43;;;;;;;7.90;5.40;;;;;;;16.84;100.00;98949.23;110285;1244;59829;-66
2023/09/20 06:15:13;;;;;;;8.20;5.90;;;;;;;16.84;100.00;98948.38;110283;1248;62869;-66
2023/09/20 06:17:42;;;;;;;10.90;6.70;;;;;;;16.81;100.00;98951.33;110261;1244;59806;-66
2023/09/20 06:20:12;;;;;;;9.70;5.80;;;;;;;16.80;100.00;98947.88;110279;1244;60110;-66
2023/09/20 06:22:39;;;;;;;7.50;6.80;;;;;;;16.79;100.00;98949.23;110263;1244;65704;-66
2023/09/20 06:25:06;;;;;;;8.80;6.60;;;;;;;16.78;100.00;98950.35;110294;1244;60134;-66
2023/09/20 06:27:33;;;;;;;10.20;5.80;;;;;;;16.78;100.00;98952.70;110308;1244;63837;-66
2023/09/20 06:30:06;;;;;;;7.70;5.50;;;;;;;16.78;100.00;98954.66;110231;1244;60104;-65
2023/09/20 06:32:33;;;;;;;7.40;5.80;;;;;;;16.80;100.00;98956.51;110304;1245;59806;-65
2023/09/20 06:35:07;;;;;;;6.80;4.90;;;;;;;16.80;100.00;98957.39;110313;1244;66538;-65
2023/09/20 06:37:35;;;;;;;7.60;5.20;;;;;;;16.82;100.00;98957.88;109907;1244;59866;-65
2023/09/20 06:40:12;;;;;;;8.10;5.10;;;;;;;16.85;100.00;98961.34;109871;1244;64240;-64
2023/09/20 06:42:38;;;;;;;9.20;5.40;;;;;;;16.86;100.00;98963.73;109851;1244;59882;-65
2023/09/20 06:45:08;;;;;;;8.30;5.40;;;;;;;16.92;100.00;98964.90;110291;1244;59813;-65
2023/09/20 06:47:35;;;;;;;7.10;5.60;;;;;;;16.97;100.00;98963.84;110285;1245;66873;-65
2023/09/20 06:50:03;;;;;;;8.20;5.20;;;;;;;17.02;100.00;98968.36;110265;1244;60045;-65
2023/09/20 06:52:29;;;;;;;6.20;4.70;;;;;;;17.07;100.00;98966.27;110172;1244;178877;-66
2023/09/20 06:54:56;;;;;;;6.60;4.40;;;;;;;17.13;100.00;98970.08;110260;1244;60082;-65
2023/09/20 06:57:24;;;;;;;6.30;4.60;;;;;;;17.15;100.00;98971.38;110337;1244;59798;-65
2023/09/20 06:59:54;;;;;;;4.80;4.10;;;;;;;17.14;100.00;98974.70;110295;1245;67342;-65
2023/09/20 07:02:24;;;;;;;4.60;3.50;;;;;;;17.15;100.00;98976.03;109936;1244;59852;-65
2023/09/20 07:04:50;;;;;;;6.20;3.50;;;;;;;17.16;100.00;98976.23;110264;1244;62778;-65
2023/09/20 07:07:18;;;;;;;5.10;3.00;;;;;;;17.19;100.00;98975.78;110265;1244;59821;-65
2023/09/20 07:09:45;;;;;;;5.10;3.30;;;;;;;17.26;100.00;98976.77;110252;1244;59779;-65
2023/09/20 07:12:11;;;;;;;5.00;3.20;;;;;;;17.35;100.00;98981.27;110279;1244;66964;-65
2023/09/20 07:14:38;;;;;;;4.90;2.90;;;;;;;17.44;100.00;98987.10;110282;1244;60163;-65
2023/09/20 07:17:07;;;;;;;3.80;3.00;;;;;;;17.51;100.00;98986.02;110268;1244;62479;-65
2023/09/20 07:19:36;;;;;;;3.90;2.90;;;;;;;17.58;100.00;98987.33;110252;1248;59977;-65
2023/09/20 07:22:05;;;;;;;3.90;3.30;;;;;;;17.64;100.00;98990.67;110253;1244;61707;-66
2023/09/20 07:24:33;;;;;;;6.50;3.50;;;;;;;17.70;100.00;98993.33;110304;1244;66853;-65
2023/09/20 07:26:59;;;;;;;4.00;2.70;;;;;;;17.75;100.00;98994.27;109784;1244;60856;-65
2023/09/20 07:29:26;;;;;;;6.70;3.00;;;;;;;17.79;100.00;98997.02;110270;1244;59771;-65
2023/09/20 07:31:53;;;;;;;6.30;3.20;;;;;;;17.83;100.00;98996.10;110268;1244;59855;-66
2023/09/20 07:34:23;;;;;;;6.10;2.90;;;;;;;17.92;100.00;98996.33;110343;1244;59801;-66
2023/09/20 07:36:53;;;;;;;5.00;2.40;;;;;;;18.00;100.00;98998.89;110304;1244;65278;-66
2023/09/20 07:39:21;;;;;;;4.90;2.80;;;;;;;18.08;100.00;99002.59;110290;1244;60134;-66
2023/09/20 07:41:50;;;;;;;5.00;2.50;;;;;;;18.20;100.00;98994.10;109772;1244;63988;-66
2023/09/20 07:44:17;;;;;;;5.60;2.40;;;;;;;18.29;100.00;98997.52;110286;1245;59886;-66
2023/09/20 07:46:44;;;;;;;6.40;3.00;;;;;;;18.32;100.00;98997.38;109831;1244;59790;-65
2023/09/20 07:49:10;;;;;;;8.20;3.40;;;;;;;18.37;100.00;98997.23;110243;1245;67280;-66
2023/09/20 07:51:37;;;;;;;6.20;3.10;;;;;;;18.42;100.00;98997.27;110242;1247;60296;-66
2023/09/20 07:54:06;;;;;;;5.90;3.30;;;;;;;18.48;100.00;98996.89;110208;1246;63985;-66
2023/09/20 07:56:34;;;;;;;5.60;3.10;;;;;;;18.51;100.00;98997.13;110203;1246;59777;-66
2023/09/20 07:59:02;;;;;;;5.90;3.20;;;;;;;18.56;100.00;98996.66;110231;1247;59782;-66
2023/09/20 08:01:29;;;;;;;6.00;2.90;;;;;;;18.61;100.00;98996.62;110248;1247;66836;-65
2023/09/20 08:03:59;;;;;;;3.70;3.00;;;;;;;18.70;100.00;99002.27;110258;1247;60110;-65
2023/09/20 08:06:34;;;;;;;3.90;2.70;;;;;;;18.77;100.00;99006.44;109768;1247;63757;-65
2023/09/20 08:09:05;;;;;;;4.40;2.70;;;;;;;18.85;100.00;99007.96;110231;1246;60145;-65
2023/09/20 08:11:33;;;;;;;5.30;2.80;;;;;;;18.96;100.00;99011.41;110216;1245;59829;-66
2023/09/20 08:14:01;;;;;;;3.00;2.50;;;;;;;19.04;100.00;99004.80;110241;1246;66673;-65
2023/09/20 08:16:34;;;;;;;3.80;2.60;;;;;;;19.13;100.00;99006.38;110256;1247;59876;-66
2023/09/20 08:19:20;;;;;;;5.40;2.60;;;;;;;19.21;100.00;99006.61;110214;1247;63784;-65
2023/09/20 08:21:47;;;;;;;5.00;2.90;;;;;;;19.29;100.00;99006.70;110252;1246;60112;-66
2023/09/20 09:00:31;;;;;;;1.90;1.60;;;;;;;20.43;100.00;98989.34;110192;1247;64085;-65
2023/09/20 09:02:59;;;;;;;3.00;2.30;;;;;;;20.53;100.00;98988.09;110232;1248;59787;-65
2023/09/20 09:05:29;;;;;;;2.10;1.60;;;;;;;20.62;100.00;98988.19;110229;1246;59768;-65
2023/09/20 09:07:58;;;;;;;3.00;1.80;;;;;;;20.62;100.00;98995.57;110227;1246;74537;-65
2023/09/20 09:10:25;;;;;;;2.00;1.60;;;;;;;20.66;100.00;98992.26;110256;1247;59856;-65
2023/09/20 09:12:52;;;;;;;2.50;1.70;;;;;;;20.72;100.00;98997.42;110239;1247;65184;-65
2023/09/20 09:15:19;;;;;;;3.30;1.40;;;;;;;20.75;100.00;98997.73;110214;1246;60168;-65
2023/09/20 09:17:47;;;;;;;3.10;1.50;;;;;;;20.79;100.00;98994.48;110199;1248;59814;-65
2023/09/20 09:20:16;;;;;;;1.90;1.40;;;;;;;20.84;100.00;98987.98;110283;1246;65646;-65
2023/09/20 09:22:44;;;;;;;2.90;1.30;;;;;;;20.92;100.00;98989.78;110264;1247;59817;-65
2023/09/20 09:25:18;;;;;;;3.50;1.80;;;;;;;20.98;100.00;98993.30;110192;1248;64126;-65
2023/09/20 09:27:44;;;;;;;2.40;1.70;;;;;;;21.02;100.00;98993.94;110212;1248;59789;-65
2023/09/20 09:30:14;;;;;;;2.80;1.70;;;;;;;21.12;100.00;98991.73;110262;1248;60035;-65
2023/09/20 09:32:46;;;;;;;1.70;1.40;;;;;;;21.16;100.00;98992.96;110246;1247;67088;-66
2023/09/20 09:35:15;;;;;;;2.40;1.40;;;;;;;21.18;100.00;98991.77;110231;1247;60156;-65
2023/09/20 09:37:43;;;;;;;3.40;1.50;;;;;;;21.25;100.00;98989.18;110196;1246;64054;-65
2023/09/20 09:40:14;;;;;;;1.70;1.40;;;;;;;21.30;100.00;98987.20;110216;1247;59723;-65
2023/09/20 09:42:44;;;;;;;2.90;1.50;;;;;;;21.35;100.00;98986.67;110242;1246;59850;-66
2023/09/20 09:45:12;;;;;;;2.30;1.40;;;;;;;21.42;100.00;98985.73;110191;1248;67196;-65
2023/09/20 09:47:41;;;;;;;2.30;1.80;;;;;;;21.44;100.00;98979.67;110252;1248;59795;-65
2023/09/20 09:50:09;;;;;;;3.10;1.50;;;;;;;21.55;100.00;98975.61;110205;1247;63737;-65
2023/09/20 09:52:39;;;;;;;2.80;1.70;;;;;;;21.65;100.00;98972.30;110195;1248;59962;-65
2023/09/20 09:55:06;;;;;;;3.90;1.20;;;;;;;21.77;100.00;98970.22;110227;1246;59819;-65
2023/09/20 09:57:32;;;;;;;3.20;1.20;;;;;;;21.86;100.00;98972.02;110241;1247;65376;-65
2023/09/20 09:59:59;;;;;;;1.70;1.20;;;;;;;21.93;100.00;98971.48;110253;1247;60202;-64
2023/09/20 10:02:31;;;;;;;1.50;1.30;;;;;;;21.98;100.00;98973.42;110259;1246;64451;-65
2023/09/20 10:05:02;;;;;;;1.90;1.40;;;;;;;22.02;100.00;98975.61;110253;1245;59760;-64
2023/09/20 10:07:35;;;;;;;3.30;1.40;;;;;;;22.06;100.00;98976.64;110291;1246;59769;-64
2023/09/20 10:10:13;;;;;;;3.30;1.60;;;;;;;22.15;100.00;98976.56;110241;1249;66857;-64
2023/09/20 10:12:44;;;;;;;2.40;1.30;;;;;;;22.21;100.00;98974.22;110265;1248;60003;-65
2023/09/20 10:15:13;;;;;;;3.40;1.20;;;;;;;22.32;100.00;98969.48;110259;1247;64110;-66
2023/09/20 10:17:54;;;;;;;2.50;1.40;;;;;;;22.41;100.00;98962.64;110237;1247;59811;-66
2023/09/20 10:20:22;;;;;;;2.30;1.70;;;;;;;22.49;100.00;98964.25;110252;1247;59776;-66
2023/09/20 10:22:52;;;;;;;2.60;1.40;;;;;;;22.54;100.00;98957.88;110277;1250;66830;-66
2023/09/20 10:25:34;;;;;;;2.70;1.40;;;;;;;22.52;100.00;98956.80;110285;1246;59776;-65
2023/09/20 10:28:08;;;;;;;3.70;1.30;;;;;;;22.53;100.00;98957.98;110262;1246;64309;-66
2023/09/20 10:31:14;;;;;;;1.60;1.30;;;;;;;22.55;100.00;98958.27;110223;1250;60049;-65
2023/09/20 10:33:45;;;;;;;1.40;1.10;;;;;;;22.60;100.00;98957.86;109244;1254;59885;-64
2023/09/20 10:36:33;;;;;;;1.30;1.00;;;;;;;22.64;100.00;98955.73;109227;1254;65392;-64
2023/09/20 10:39:18;;;;;;;1.10;1.00;;;;;;;22.67;100.00;98951.30;109247;1255;59921;-64
2023/09/20 10:41:46;;;;;;;2.10;1.00;;;;;;;22.68;100.00;98950.19;109221;1254;62565;-65
2023/09/20 10:44:35;;;;;;;2.00;1.10;;;;;;;22.67;100.00;98945.83;109229;1255;59742;-65
2023/09/20 10:47:08;;;;;;;2.00;1.10;;;;;;;22.70;100.00;98942.16;109243;1254;59784;-66
2023/09/20 10:49:41;;;;;;;2.90;1.30;;;;;;;22.81;100.00;98936.03;109230;1254;66624;-65
2023/09/20 10:52:09;;;;;;;1.70;1.00;;;;;;;22.88;100.00;98934.86;109250;1258;59797;-65
2023/09/20 10:54:39;;;;;;;1.90;1.20;;;;;;;22.94;100.00;98934.46;109121;1254;64164;-65
2023/09/20 10:57:10;;;;;;;1.30;1.00;;;;;;;23.01;100.00;98934.94;109215;1254;60215;-65
2023/09/20 10:59:38;;;;;;;2.60;1.20;;;;;;;23.04;100.00;98925.74;109233;1254;60009;-66
2023/09/20 11:02:09;;;;;;;2.70;0.90;;;;;;;23.03;100.00;98928.13;109240;1254;66892;-65
2023/09/20 11:04:37;;;;;;;1.80;0.90;;;;;;;23.03;100.00;98928.20;109252;1254;59970;-66
2023/09/20 11:07:05;;;;;;;1.20;1.00;;;;;;;23.07;100.00;98927.00;109407;1248;62692;-66
2023/09/20 11:09:33;;;;;;;2.10;1.00;;;;;;;23.10;100.00;98922.20;109650;1253;60145;-66
2023/09/20 11:54:47;;;;;;;2.00;1.00;;;;;;;23.21;100.00;98887.61;110221;1246;65523;-71
2023/09/20 11:57:17;;;;;;;1.70;1.00;;;;;;;23.27;100.00;98883.48;110238;1246;60126;-70
2023/09/20 11:59:45;;;;;;;1.40;1.00;;;;;;;23.30;100.00;98877.96;110235;1247;64146;-71
2023/09/20 12:02:12;;;;;;;1.80;1.00;;;;;;;23.38;100.00;98876.65;110203;1246;59753;-70
2023/09/20 12:04:39;;;;;;;1.40;1.30;;;;;;;23.50;100.00;98872.41;110236;1246;59775;-71
2023/09/20 12:07:07;;;;;;;1.20;1.00;;;;;;;23.58;100.00;98876.55;110230;1248;67224;-70
2023/09/20 12:09:35;;;;;;;1.40;1.00;;;;;;;23.58;100.00;98877.43;110247;1247;60244;-70
2023/09/20 12:12:06;;;;;;;2.50;1.30;;;;;;;23.57;100.00;98875.94;110219;1245;64088;-70
2023/09/20 12:14:34;;;;;;;1.90;1.00;;;;;;;23.55;100.00;98872.73;110222;1246;59806;-70
2023/09/20 12:17:01;;;;;;;1.70;1.00;;;;;;;23.51;100.00;98870.85;110246;1246;59762;-70
2023/09/20 12:19:28;;;;;;;0.80;0.80;;;;;;;23.48;100.00;98867.55;110242;1247;66807;-70
2023/09/20 12:21:55;;;;;;;1.70;1.10;;;;;;;23.45;100.00;98862.35;110268;1247;60833;-70
2023/09/20 12:24:24;;;;;;;1.80;1.00;;;;;;;23.39;100.00;98858.16;110214;1245;65823;-70
2023/09/20 12:26:51;;;;;;;1.10;0.90;;;;;;;23.39;100.00;98855.23;110207;1246;59758;-70
2023/09/20 12:29:18;;;;;;;2.10;1.10;;;;;;;23.43;100.00;98851.70;110270;1246;60045;-70
2023/09/20 12:31:47;;;;;;;1.20;0.90;;;;;;;23.46;100.00;98850.85;110214;1250;59783;-70
2023/09/20 12:34:14;;;;;;;1.60;0.90;;;;;;;23.43;100.00;98847.69;110245;1246;59741;-70
2023/09/20 12:36:41;;;;;;;1.00;1.00;;;;;;;23.40;100.00;98846.80;110227;1246;63876;-70
2023/09/20 12:39:10;;;;;;;1.00;1.00;;;;;;;23.41;100.00;98845.35;110207;1247;59839;-71